sensor_id;sensor_type;location;lat;lon;timestamp;P1;durP1;ratioP1;P2;durP2;ratioP2
18251;SDS011;26917;52.328;20.878;2023-01-15T00:00:51;22.77;;;11.90;;
18251;SDS011;26917;52.328;20.878;2023-01-15T00:03:20;22.23;;;11.95;;
18251;SDS011;26917;52.328;20.878;2023-01-15T00:05:49;23.45;;;12.27;;
18251;SDS011;26917;52.328;20.878;2023-01-15T00:08:23;21.05;;;10.95;;
18251;SDS011;26917;52.328;20.878;2023-01-15T00:10:51;22.55;;;11.27;;
18251;SDS011;26917;52.328;20.878;2023-01-15T00:13:27;20.13;;;11.05;;
18251;SDS011;26917;52.328;20.878;2023-01-15T00:16:10;23.00;;;11.75;;
18251;SDS011;26917;52.328;20.878;2023-01-15T00:18:40;20.15;;;11.20;;
18251;SDS011;26917;52.328;20.878;2023-01-15T00:21:13;21.83;;;10.57;;
18251;SDS011;26917;52.328;20.878;2023-01-15T00:23:42;22.88;;;11.38;;
18251;SDS011;26917;52.328;20.878;2023-01-15T00:26:31;22.50;;;11.00;;
18251;SDS011;26917;52.328;20.878;2023-01-15T00:29:18;22.30;;;10.50;;
18251;SDS011;26917;52.328;20.878;2023-01-15T00:31:51;18.83;;;10.30;;
18251;SDS011;26917;52.328;20.878;2023-01-15T00:34:36;24.52;;;11.55;;
18251;SDS011;26917;52.328;20.878;2023-01-15T00:37:10;15.02;;;9.73;;
18251;SDS011;26917;52.328;20.878;2023-01-15T00:39:42;22.23;;;10.68;;
18251;SDS011;26917;52.328;20.878;2023-01-15T00:42:11;21.90;;;11.15;;
18251;SDS011;26917;52.328;20.878;2023-01-15T00:44:41;23.55;;;11.23;;
18251;SDS011;26917;52.328;20.878;2023-01-15T00:47:13;20.67;;;10.25;;
18251;SDS011;26917;52.328;20.878;2023-01-15T00:49:42;25.70;;;11.05;;
18251;SDS011;26917;52.328;20.878;2023-01-15T00:52:19;19.55;;;10.45;;
18251;SDS011;26917;52.328;20.878;2023-01-15T00:54:48;25.60;;;11.27;;
18251;SDS011;26917;52.328;20.878;2023-01-15T00:57:16;24.10;;;11.00;;
18251;SDS011;26917;52.328;20.878;2023-01-15T00:59:51;17.60;;;10.25;;
18251;SDS011;26917;52.328;20.878;2023-01-15T01:02:41;19.98;;;11.45;;
18251;SDS011;26917;52.328;20.878;2023-01-15T01:05:19;18.02;;;10.57;;
18251;SDS011;26917;52.328;20.878;2023-01-15T01:07:58;18.30;;;11.23;;
18251;SDS011;26917;52.328;20.878;2023-01-15T01:10:35;18.58;;;10.95;;
18251;SDS011;26917;52.328;20.878;2023-01-15T01:13:03;21.95;;;10.98;;
18251;SDS011;26917;52.328;20.878;2023-01-15T01:15:32;20.23;;;11.80;;
18251;SDS011;26917;52.328;20.878;2023-01-15T01:18:01;21.65;;;11.93;;
18251;SDS011;26917;52.328;20.878;2023-01-15T01:20:31;22.83;;;11.45;;
18251;SDS011;26917;52.328;20.878;2023-01-15T01:23:18;22.38;;;10.43;;
18251;SDS011;26917;52.328;20.878;2023-01-15T01:25:47;26.00;;;11.93;;
18251;SDS011;26917;52.328;20.878;2023-01-15T01:28:15;17.83;;;10.52;;
18251;SDS011;26917;52.328;20.878;2023-01-15T01:30:47;18.40;;;10.88;;
18251;SDS011;26917;52.328;20.878;2023-01-15T01:33:17;21.52;;;10.77;;
18251;SDS011;26917;52.328;20.878;2023-01-15T01:35:56;33.10;;;10.88;;
18251;SDS011;26917;52.328;20.878;2023-01-15T01:38:36;21.38;;;10.35;;
18251;SDS011;26917;52.328;20.878;2023-01-15T01:41:04;17.60;;;10.07;;
18251;SDS011;26917;52.328;20.878;2023-01-15T01:43:49;17.33;;;9.95;;
18251;SDS011;26917;52.328;20.878;2023-01-15T01:46:20;23.05;;;10.32;;
18251;SDS011;26917;52.328;20.878;2023-01-15T01:48:49;22.88;;;11.13;;
18251;SDS011;26917;52.328;20.878;2023-01-15T01:51:21;15.60;;;9.73;;
18251;SDS011;26917;52.328;20.878;2023-01-15T01:53:55;15.48;;;9.65;;
18251;SDS011;26917;52.328;20.878;2023-01-15T01:56:24;18.02;;;9.80;;
18251;SDS011;26917;52.328;20.878;2023-01-15T01:59:03;18.63;;;10.10;;
18251;SDS011;26917;52.328;20.878;2023-01-15T02:01:37;16.88;;;9.82;;
18251;SDS011;26917;52.328;20.878;2023-01-15T02:04:09;16.20;;;9.98;;
18251;SDS011;26917;52.328;20.878;2023-01-15T02:06:38;14.13;;;9.13;;
18251;SDS011;26917;52.328;20.878;2023-01-15T02:09:10;19.77;;;9.60;;
18251;SDS011;26917;52.328;20.878;2023-01-15T02:11:39;20.15;;;10.80;;
18251;SDS011;26917;52.328;20.878;2023-01-15T02:14:08;17.20;;;9.13;;
18251;SDS011;26917;52.328;20.878;2023-01-15T02:16:50;15.45;;;9.10;;
18251;SDS011;26917;52.328;20.878;2023-01-15T02:19:29;16.58;;;9.77;;
18251;SDS011;26917;52.328;20.878;2023-01-15T02:22:16;16.95;;;10.00;;
18251;SDS011;26917;52.328;20.878;2023-01-15T02:24:59;15.82;;;10.05;;
18251;SDS011;26917;52.328;20.878;2023-01-15T02:27:43;14.95;;;8.80;;
18251;SDS011;26917;52.328;20.878;2023-01-15T02:30:22;14.35;;;9.55;;
18251;SDS011;26917;52.328;20.878;2023-01-15T02:33:36;13.15;;;8.35;;
18251;SDS011;26917;52.328;20.878;2023-01-15T02:35:58;18.60;;;9.68;;
18251;SDS011;26917;52.328;20.878;2023-01-15T02:38:35;18.50;;;9.30;;
18251;SDS011;26917;52.328;20.878;2023-01-15T02:41:08;17.52;;;9.27;;
18251;SDS011;26917;52.328;20.878;2023-01-15T02:43:48;15.80;;;9.38;;
18251;SDS011;26917;52.328;20.878;2023-01-15T02:46:53;12.15;;;8.27;;
18251;SDS011;26917;52.328;20.878;2023-01-15T02:49:39;21.35;;;9.57;;
18251;SDS011;26917;52.328;20.878;2023-01-15T02:52:13;13.05;;;8.98;;
18251;SDS011;26917;52.328;20.878;2023-01-15T02:54:56;14.35;;;8.77;;
18251;SDS011;26917;52.328;20.878;2023-01-15T02:57:29;16.35;;;9.50;;
18251;SDS011;26917;52.328;20.878;2023-01-15T03:00:06;13.05;;;7.75;;
18251;SDS011;26917;52.328;20.878;2023-01-15T03:02:57;12.48;;;7.93;;
18251;SDS011;26917;52.328;20.878;2023-01-15T03:05:30;18.75;;;8.65;;
18251;SDS011;26917;52.328;20.878;2023-01-15T03:08:05;12.73;;;8.50;;
18251;SDS011;26917;52.328;20.878;2023-01-15T03:10:56;12.30;;;8.23;;
18251;SDS011;26917;52.328;20.878;2023-01-15T03:13:45;11.57;;;8.40;;
18251;SDS011;26917;52.328;20.878;2023-01-15T03:16:21;12.80;;;8.32;;
18251;SDS011;26917;52.328;20.878;2023-01-15T03:19:19;16.35;;;8.40;;
18251;SDS011;26917;52.328;20.878;2023-01-15T03:22:01;15.27;;;8.82;;
18251;SDS011;26917;52.328;20.878;2023-01-15T03:24:39;14.90;;;8.05;;
18251;SDS011;26917;52.328;20.878;2023-01-15T03:27:14;15.95;;;8.55;;
18251;SDS011;26917;52.328;20.878;2023-01-15T03:29:49;15.40;;;7.95;;
18251;SDS011;26917;52.328;20.878;2023-01-15T03:32:25;12.43;;;7.45;;
18251;SDS011;26917;52.328;20.878;2023-01-15T03:34:55;13.38;;;7.85;;
18251;SDS011;26917;52.328;20.878;2023-01-15T03:37:24;16.35;;;8.55;;
18251;SDS011;26917;52.328;20.878;2023-01-15T03:39:57;13.30;;;7.35;;
18251;SDS011;26917;52.328;20.878;2023-01-15T03:42:37;15.02;;;8.20;;
18251;SDS011;26917;52.328;20.878;2023-01-15T03:45:14;14.68;;;8.00;;
18251;SDS011;26917;52.328;20.878;2023-01-15T03:47:51;15.63;;;8.85;;
18251;SDS011;26917;52.328;20.878;2023-01-15T03:50:26;18.02;;;7.60;;
18251;SDS011;26917;52.328;20.878;2023-01-15T03:53:02;15.38;;;8.15;;
18251;SDS011;26917;52.328;20.878;2023-01-15T03:55:47;15.90;;;8.27;;
18251;SDS011;26917;52.328;20.878;2023-01-15T03:58:29;13.20;;;7.72;;
18251;SDS011;26917;52.328;20.878;2023-01-15T04:01:23;13.95;;;8.68;;
18251;SDS011;26917;52.328;20.878;2023-01-15T04:04:09;15.85;;;7.78;;
18251;SDS011;26917;52.328;20.878;2023-01-15T04:06:43;13.90;;;8.15;;
18251;SDS011;26917;52.328;20.878;2023-01-15T04:09:15;15.15;;;8.52;;
18251;SDS011;26917;52.328;20.878;2023-01-15T04:11:49;15.57;;;8.63;;
18251;SDS011;26917;52.328;20.878;2023-01-15T04:14:21;17.60;;;8.60;;
18251;SDS011;26917;52.328;20.878;2023-01-15T04:16:53;16.95;;;8.88;;
18251;SDS011;26917;52.328;20.878;2023-01-15T04:19:24;16.80;;;8.32;;
18251;SDS011;26917;52.328;20.878;2023-01-15T04:22:02;19.23;;;8.00;;
18251;SDS011;26917;52.328;20.878;2023-01-15T04:27:27;15.20;;;8.70;;
18251;SDS011;26917;52.328;20.878;2023-01-15T04:30:04;14.55;;;8.52;;
18251;SDS011;26917;52.328;20.878;2023-01-15T04:32:33;13.10;;;7.28;;
18251;SDS011;26917;52.328;20.878;2023-01-15T04:35:18;15.77;;;8.32;;
18251;SDS011;26917;52.328;20.878;2023-01-15T04:37:53;14.82;;;7.85;;
18251;SDS011;26917;52.328;20.878;2023-01-15T04:40:26;15.55;;;8.55;;
18251;SDS011;26917;52.328;20.878;2023-01-15T04:43:11;14.55;;;8.45;;
18251;SDS011;26917;52.328;20.878;2023-01-15T04:46:00;14.50;;;8.07;;
18251;SDS011;26917;52.328;20.878;2023-01-15T04:48:37;16.80;;;8.43;;
18251;SDS011;26917;52.328;20.878;2023-01-15T04:51:11;13.18;;;8.05;;
18251;SDS011;26917;52.328;20.878;2023-01-15T04:53:43;15.75;;;9.07;;
18251;SDS011;26917;52.328;20.878;2023-01-15T04:56:12;11.30;;;8.10;;
18251;SDS011;26917;52.328;20.878;2023-01-15T04:58:41;13.45;;;7.88;;
18251;SDS011;26917;52.328;20.878;2023-01-15T05:01:13;13.95;;;8.70;;
18251;SDS011;26917;52.328;20.878;2023-01-15T05:03:45;17.23;;;9.18;;
18251;SDS011;26917;52.328;20.878;2023-01-15T05:06:32;14.82;;;8.02;;
18251;SDS011;26917;52.328;20.878;2023-01-15T05:09:02;13.38;;;7.85;;
18251;SDS011;26917;52.328;20.878;2023-01-15T05:11:33;13.80;;;7.40;;
18251;SDS011;26917;52.328;20.878;2023-01-15T05:14:19;16.58;;;7.40;;
18251;SDS011;26917;52.328;20.878;2023-01-15T05:16:48;14.93;;;7.53;;
18251;SDS011;26917;52.328;20.878;2023-01-15T05:19:23;12.98;;;7.53;;
18251;SDS011;26917;52.328;20.878;2023-01-15T05:21:54;11.88;;;6.95;;
18251;SDS011;26917;52.328;20.878;2023-01-15T05:24:22;11.73;;;7.18;;
18251;SDS011;26917;52.328;20.878;2023-01-15T05:26:50;9.93;;;6.13;;
18251;SDS011;26917;52.328;20.878;2023-01-15T05:29:19;11.10;;;6.97;;
18251;SDS011;26917;52.328;20.878;2023-01-15T05:31:50;14.20;;;7.18;;
18251;SDS011;26917;52.328;20.878;2023-01-15T05:34:18;10.73;;;7.30;;
18251;SDS011;26917;52.328;20.878;2023-01-15T05:36:50;9.45;;;6.55;;
18251;SDS011;26917;52.328;20.878;2023-01-15T05:39:25;9.18;;;6.82;;
18251;SDS011;26917;52.328;20.878;2023-01-15T05:41:53;9.93;;;6.90;;
18251;SDS011;26917;52.328;20.878;2023-01-15T05:44:38;12.85;;;7.85;;
18251;SDS011;26917;52.328;20.878;2023-01-15T05:47:09;10.48;;;7.32;;
18251;SDS011;26917;52.328;20.878;2023-01-15T05:49:38;8.98;;;5.75;;
18251;SDS011;26917;52.328;20.878;2023-01-15T05:52:08;10.23;;;6.75;;
18251;SDS011;26917;52.328;20.878;2023-01-15T05:54:41;9.32;;;5.82;;
18251;SDS011;26917;52.328;20.878;2023-01-15T05:57:10;10.43;;;6.07;;
18251;SDS011;26917;52.328;20.878;2023-01-15T05:59:39;8.35;;;6.25;;
18251;SDS011;26917;52.328;20.878;2023-01-15T06:02:12;8.27;;;5.85;;
18251;SDS011;26917;52.328;20.878;2023-01-15T06:04:59;10.05;;;5.85;;
18251;SDS011;26917;52.328;20.878;2023-01-15T06:07:34;8.40;;;6.10;;
18251;SDS011;26917;52.328;20.878;2023-01-15T06:10:04;11.48;;;6.22;;
18251;SDS011;26917;52.328;20.878;2023-01-15T06:12:33;9.57;;;6.22;;
18251;SDS011;26917;52.328;20.878;2023-01-15T06:15:02;7.38;;;5.40;;
18251;SDS011;26917;52.328;20.878;2023-01-15T06:17:34;9.30;;;5.90;;
18251;SDS011;26917;52.328;20.878;2023-01-15T06:20:06;10.00;;;5.50;;
18251;SDS011;26917;52.328;20.878;2023-01-15T06:22:35;7.93;;;5.60;;
18251;SDS011;26917;52.328;20.878;2023-01-15T06:25:06;6.78;;;5.28;;
18251;SDS011;26917;52.328;20.878;2023-01-15T06:27:34;6.05;;;5.10;;
18251;SDS011;26917;52.328;20.878;2023-01-15T06:30:04;9.70;;;6.28;;
18251;SDS011;26917;52.328;20.878;2023-01-15T06:32:33;8.80;;;6.30;;
18251;SDS011;26917;52.328;20.878;2023-01-15T06:35:02;7.70;;;5.93;;
18251;SDS011;26917;52.328;20.878;2023-01-15T06:37:31;6.82;;;5.47;;
18251;SDS011;26917;52.328;20.878;2023-01-15T06:40:04;8.52;;;5.20;;
18251;SDS011;26917;52.328;20.878;2023-01-15T06:42:39;7.10;;;5.63;;
18251;SDS011;26917;52.328;20.878;2023-01-15T06:45:25;10.02;;;5.22;;
18251;SDS011;26917;52.328;20.878;2023-01-15T06:48:21;7.05;;;5.70;;
18251;SDS011;26917;52.328;20.878;2023-01-15T06:50:53;8.98;;;5.47;;
18251;SDS011;26917;52.328;20.878;2023-01-15T06:53:21;8.10;;;5.38;;
18251;SDS011;26917;52.328;20.878;2023-01-15T06:55:51;6.43;;;5.38;;
18251;SDS011;26917;52.328;20.878;2023-01-15T06:58:20;5.53;;;4.70;;
18251;SDS011;26917;52.328;20.878;2023-01-15T07:00:48;8.38;;;5.50;;
18251;SDS011;26917;52.328;20.878;2023-01-15T07:03:21;8.27;;;4.95;;
18251;SDS011;26917;52.328;20.878;2023-01-15T07:05:50;7.40;;;5.05;;
18251;SDS011;26917;52.328;20.878;2023-01-15T07:08:18;8.10;;;5.07;;
18251;SDS011;26917;52.328;20.878;2023-01-15T07:10:46;5.32;;;3.83;;
18251;SDS011;26917;52.328;20.878;2023-01-15T07:13:16;6.88;;;5.00;;
18251;SDS011;26917;52.328;20.878;2023-01-15T07:15:44;14.82;;;4.53;;
18251;SDS011;26917;52.328;20.878;2023-01-15T07:18:13;6.15;;;4.72;;
18251;SDS011;26917;52.328;20.878;2023-01-15T07:20:41;5.28;;;4.38;;
18251;SDS011;26917;52.328;20.878;2023-01-15T07:23:09;10.52;;;5.38;;
18251;SDS011;26917;52.328;20.878;2023-01-15T07:25:38;12.02;;;5.30;;
18251;SDS011;26917;52.328;20.878;2023-01-15T07:28:06;7.60;;;4.25;;
18251;SDS011;26917;52.328;20.878;2023-01-15T07:30:44;5.85;;;3.97;;
18251;SDS011;26917;52.328;20.878;2023-01-15T07:33:13;10.65;;;4.35;;
18251;SDS011;26917;52.328;20.878;2023-01-15T07:35:41;4.97;;;3.97;;
18251;SDS011;26917;52.328;20.878;2023-01-15T07:38:10;7.05;;;4.57;;
18251;SDS011;26917;52.328;20.878;2023-01-15T07:40:40;5.40;;;4.90;;
18251;SDS011;26917;52.328;20.878;2023-01-15T07:43:09;7.38;;;5.22;;
18251;SDS011;26917;52.328;20.878;2023-01-15T07:45:56;11.13;;;4.85;;
18251;SDS011;26917;52.328;20.878;2023-01-15T07:48:42;6.55;;;4.35;;
18251;SDS011;26917;52.328;20.878;2023-01-15T07:51:27;5.75;;;4.60;;
18251;SDS011;26917;52.328;20.878;2023-01-15T07:53:59;12.73;;;5.20;;
18251;SDS011;26917;52.328;20.878;2023-01-15T07:56:30;7.53;;;4.65;;
18251;SDS011;26917;52.328;20.878;2023-01-15T07:59:14;7.30;;;4.55;;
18251;SDS011;26917;52.328;20.878;2023-01-15T08:01:43;4.82;;;3.90;;
18251;SDS011;26917;52.328;20.878;2023-01-15T08:04:12;6.95;;;5.32;;
18251;SDS011;26917;52.328;20.878;2023-01-15T08:06:40;5.13;;;4.50;;
18251;SDS011;26917;52.328;20.878;2023-01-15T08:09:09;4.82;;;4.30;;
18251;SDS011;26917;52.328;20.878;2023-01-15T08:11:37;7.75;;;4.78;;
18251;SDS011;26917;52.328;20.878;2023-01-15T08:14:44;9.32;;;4.82;;
18251;SDS011;26917;52.328;20.878;2023-01-15T08:17:43;7.38;;;4.97;;
18251;SDS011;26917;52.328;20.878;2023-01-15T08:20:16;5.82;;;4.38;;
18251;SDS011;26917;52.328;20.878;2023-01-15T08:22:49;9.43;;;4.60;;
18251;SDS011;26917;52.328;20.878;2023-01-15T08:25:18;9.45;;;5.43;;
18251;SDS011;26917;52.328;20.878;2023-01-15T08:27:53;6.45;;;4.45;;
18251;SDS011;26917;52.328;20.878;2023-01-15T08:30:22;7.70;;;4.80;;
18251;SDS011;26917;52.328;20.878;2023-01-15T08:33:00;7.63;;;5.47;;
18251;SDS011;26917;52.328;20.878;2023-01-15T08:35:29;8.60;;;4.50;;
18251;SDS011;26917;52.328;20.878;2023-01-15T08:38:02;8.75;;;4.57;;
18251;SDS011;26917;52.328;20.878;2023-01-15T08:40:34;6.60;;;4.40;;
18251;SDS011;26917;52.328;20.878;2023-01-15T08:43:48;6.35;;;4.63;;
18251;SDS011;26917;52.328;20.878;2023-01-15T08:46:16;8.45;;;4.85;;
18251;SDS011;26917;52.328;20.878;2023-01-15T08:48:46;7.93;;;4.85;;
18251;SDS011;26917;52.328;20.878;2023-01-15T08:51:15;5.68;;;4.40;;
18251;SDS011;26917;52.328;20.878;2023-01-15T08:53:43;9.77;;;5.70;;
18251;SDS011;26917;52.328;20.878;2023-01-15T08:56:11;9.13;;;5.30;;
18251;SDS011;26917;52.328;20.878;2023-01-15T08:58:41;9.00;;;6.22;;
18251;SDS011;26917;52.328;20.878;2023-01-15T09:01:10;6.90;;;5.32;;
18251;SDS011;26917;52.328;20.878;2023-01-15T09:03:41;11.07;;;5.47;;
18251;SDS011;26917;52.328;20.878;2023-01-15T09:06:11;8.02;;;5.70;;
18251;SDS011;26917;52.328;20.878;2023-01-15T09:08:40;7.20;;;4.88;;
18251;SDS011;26917;52.328;20.878;2023-01-15T09:11:08;7.53;;;4.93;;
18251;SDS011;26917;52.328;20.878;2023-01-15T09:13:38;8.27;;;4.38;;
18251;SDS011;26917;52.328;20.878;2023-01-15T09:16:09;10.20;;;5.90;;
18251;SDS011;26917;52.328;20.878;2023-01-15T09:18:38;7.40;;;5.15;;
18251;SDS011;26917;52.328;20.878;2023-01-15T09:23:59;12.05;;;5.63;;
18251;SDS011;26917;52.328;20.878;2023-01-15T09:26:29;6.97;;;4.88;;
18251;SDS011;26917;52.328;20.878;2023-01-15T09:28:59;7.38;;;4.53;;
18251;SDS011;26917;52.328;20.878;2023-01-15T09:31:28;8.10;;;4.40;;
18251;SDS011;26917;52.328;20.878;2023-01-15T09:33:59;11.82;;;5.07;;
18251;SDS011;26917;52.328;20.878;2023-01-15T09:36:28;7.50;;;4.78;;
18251;SDS011;26917;52.328;20.878;2023-01-15T09:39:01;11.57;;;4.72;;
18251;SDS011;26917;52.328;20.878;2023-01-15T09:41:33;8.13;;;5.50;;
18251;SDS011;26917;52.328;20.878;2023-01-15T09:44:48;8.00;;;4.00;;
18251;SDS011;26917;52.328;20.878;2023-01-15T09:47:44;8.77;;;4.88;;
18251;SDS011;26917;52.328;20.878;2023-01-15T09:50:29;8.85;;;4.97;;
18251;SDS011;26917;52.328;20.878;2023-01-15T09:53:13;8.90;;;5.70;;
18251;SDS011;26917;52.328;20.878;2023-01-15T09:55:54;6.32;;;4.80;;
18251;SDS011;26917;52.328;20.878;2023-01-15T09:58:25;7.47;;;5.30;;
18251;SDS011;26917;52.328;20.878;2023-01-15T10:00:58;8.32;;;4.88;;
18251;SDS011;26917;52.328;20.878;2023-01-15T10:03:28;8.50;;;5.50;;
18251;SDS011;26917;52.328;20.878;2023-01-15T10:06:03;9.73;;;4.93;;
18251;SDS011;26917;52.328;20.878;2023-01-15T10:08:39;6.82;;;4.72;;
18251;SDS011;26917;52.328;20.878;2023-01-15T10:11:20;9.65;;;5.55;;
18251;SDS011;26917;52.328;20.878;2023-01-15T10:14:30;8.55;;;5.38;;
18251;SDS011;26917;52.328;20.878;2023-01-15T10:17:07;7.93;;;5.15;;
18251;SDS011;26917;52.328;20.878;2023-01-15T10:19:45;6.60;;;4.90;;
18251;SDS011;26917;52.328;20.878;2023-01-15T10:22:16;10.82;;;4.97;;
18251;SDS011;26917;52.328;20.878;2023-01-15T10:24:55;8.43;;;5.28;;
18251;SDS011;26917;52.328;20.878;2023-01-15T10:27:25;9.32;;;5.40;;
18251;SDS011;26917;52.328;20.878;2023-01-15T10:29:59;10.90;;;5.93;;
18251;SDS011;26917;52.328;20.878;2023-01-15T10:32:35;10.77;;;5.68;;
18251;SDS011;26917;52.328;20.878;2023-01-15T10:35:29;10.65;;;6.15;;
18251;SDS011;26917;52.328;20.878;2023-01-15T10:38:04;9.55;;;6.10;;
18251;SDS011;26917;52.328;20.878;2023-01-15T10:40:45;8.77;;;5.28;;
18251;SDS011;26917;52.328;20.878;2023-01-15T10:43:30;12.20;;;6.32;;
18251;SDS011;26917;52.328;20.878;2023-01-15T10:46:09;9.95;;;5.63;;
18251;SDS011;26917;52.328;20.878;2023-01-15T10:48:40;10.02;;;6.18;;
18251;SDS011;26917;52.328;20.878;2023-01-15T10:51:13;9.93;;;5.68;;
18251;SDS011;26917;52.328;20.878;2023-01-15T10:53:45;13.60;;;6.32;;
18251;SDS011;26917;52.328;20.878;2023-01-15T10:56:20;13.90;;;5.80;;
18251;SDS011;26917;52.328;20.878;2023-01-15T10:58:57;17.13;;;5.60;;
18251;SDS011;26917;52.328;20.878;2023-01-15T11:01:34;9.38;;;5.20;;
18251;SDS011;26917;52.328;20.878;2023-01-15T11:04:03;14.93;;;6.05;;
18251;SDS011;26917;52.328;20.878;2023-01-15T11:06:32;10.25;;;5.05;;
18251;SDS011;26917;52.328;20.878;2023-01-15T11:09:00;13.75;;;6.22;;
18251;SDS011;26917;52.328;20.878;2023-01-15T11:11:37;7.75;;;5.30;;
18251;SDS011;26917;52.328;20.878;2023-01-15T11:14:32;14.40;;;5.88;;
18251;SDS011;26917;52.328;20.878;2023-01-15T11:17:19;15.38;;;5.90;;
18251;SDS011;26917;52.328;20.878;2023-01-15T11:20:12;9.05;;;5.72;;
18251;SDS011;26917;52.328;20.878;2023-01-15T11:22:52;10.15;;;5.65;;
18251;SDS011;26917;52.328;20.878;2023-01-15T11:25:25;9.38;;;5.30;;
18251;SDS011;26917;52.328;20.878;2023-01-15T11:27:56;11.15;;;5.70;;
18251;SDS011;26917;52.328;20.878;2023-01-15T11:30:27;8.45;;;4.95;;
18251;SDS011;26917;52.328;20.878;2023-01-15T11:32:57;7.60;;;4.95;;
18251;SDS011;26917;52.328;20.878;2023-01-15T11:35:29;7.88;;;5.57;;
18251;SDS011;26917;52.328;20.878;2023-01-15T11:38:02;7.43;;;5.38;;
18251;SDS011;26917;52.328;20.878;2023-01-15T11:40:31;9.68;;;5.53;;
18251;SDS011;26917;52.328;20.878;2023-01-15T11:43:00;10.38;;;5.65;;
18251;SDS011;26917;52.328;20.878;2023-01-15T11:45:47;11.95;;;6.10;;
18251;SDS011;26917;52.328;20.878;2023-01-15T11:48:41;16.52;;;5.65;;
18251;SDS011;26917;52.328;20.878;2023-01-15T11:51:28;13.48;;;6.10;;
18251;SDS011;26917;52.328;20.878;2023-01-15T11:54:01;8.52;;;5.45;;
18251;SDS011;26917;52.328;20.878;2023-01-15T11:56:31;7.88;;;5.45;;
18251;SDS011;26917;52.328;20.878;2023-01-15T11:59:02;10.68;;;5.82;;
18251;SDS011;26917;52.328;20.878;2023-01-15T12:01:38;14.18;;;6.05;;
18251;SDS011;26917;52.328;20.878;2023-01-15T12:04:23;8.95;;;4.97;;
18251;SDS011;26917;52.328;20.878;2023-01-15T12:06:56;13.30;;;5.88;;
18251;SDS011;26917;52.328;20.878;2023-01-15T12:09:27;11.70;;;6.28;;
18251;SDS011;26917;52.328;20.878;2023-01-15T12:12:11;7.78;;;5.40;;
18251;SDS011;26917;52.328;20.878;2023-01-15T12:14:51;8.82;;;5.88;;
18251;SDS011;26917;52.328;20.878;2023-01-15T12:17:40;10.75;;;5.10;;
18251;SDS011;26917;52.328;20.878;2023-01-15T12:20:20;11.57;;;6.15;;
18251;SDS011;26917;52.328;20.878;2023-01-15T12:23:00;11.65;;;5.45;;
18251;SDS011;26917;52.328;20.878;2023-01-15T12:25:43;9.10;;;5.85;;
18251;SDS011;26917;52.328;20.878;2023-01-15T12:28:21;10.38;;;5.88;;
18251;SDS011;26917;52.328;20.878;2023-01-15T12:30:55;12.77;;;6.03;;
18251;SDS011;26917;52.328;20.878;2023-01-15T12:33:36;9.18;;;5.68;;
18251;SDS011;26917;52.328;20.878;2023-01-15T12:36:13;9.45;;;5.95;;
18251;SDS011;26917;52.328;20.878;2023-01-15T12:38:49;10.52;;;6.50;;
18251;SDS011;26917;52.328;20.878;2023-01-15T12:41:22;9.27;;;5.80;;
18251;SDS011;26917;52.328;20.878;2023-01-15T12:44:13;11.55;;;6.18;;
18251;SDS011;26917;52.328;20.878;2023-01-15T12:47:04;11.27;;;5.95;;
18251;SDS011;26917;52.328;20.878;2023-01-15T12:49:43;8.98;;;5.75;;
18251;SDS011;26917;52.328;20.878;2023-01-15T12:52:16;11.95;;;6.13;;
18251;SDS011;26917;52.328;20.878;2023-01-15T12:54:50;13.35;;;6.15;;
18251;SDS011;26917;52.328;20.878;2023-01-15T12:57:28;12.77;;;5.78;;
18251;SDS011;26917;52.328;20.878;2023-01-15T13:00:03;10.38;;;6.38;;
18251;SDS011;26917;52.328;20.878;2023-01-15T13:02:39;11.00;;;6.00;;
18251;SDS011;26917;52.328;20.878;2023-01-15T13:05:24;9.85;;;6.00;;
18251;SDS011;26917;52.328;20.878;2023-01-15T13:07:57;8.93;;;5.95;;
18251;SDS011;26917;52.328;20.878;2023-01-15T13:10:37;15.73;;;6.07;;
18251;SDS011;26917;52.328;20.878;2023-01-15T13:13:13;13.35;;;6.40;;
18251;SDS011;26917;52.328;20.878;2023-01-15T13:15:53;8.10;;;5.88;;
18251;SDS011;26917;52.328;20.878;2023-01-15T13:18:30;7.70;;;5.55;;
18251;SDS011;26917;52.328;20.878;2023-01-15T13:21:08;13.48;;;5.78;;
18251;SDS011;26917;52.328;20.878;2023-01-15T13:23:43;13.88;;;6.32;;
18251;SDS011;26917;52.328;20.878;2023-01-15T13:26:29;9.52;;;6.10;;
18251;SDS011;26917;52.328;20.878;2023-01-15T13:29:19;17.60;;;6.20;;
18251;SDS011;26917;52.328;20.878;2023-01-15T13:31:57;8.55;;;5.93;;
18251;SDS011;26917;52.328;20.878;2023-01-15T13:34:30;18.60;;;6.53;;
18251;SDS011;26917;52.328;20.878;2023-01-15T13:37:08;10.38;;;6.13;;
18251;SDS011;26917;52.328;20.878;2023-01-15T13:39:45;12.13;;;6.10;;
18251;SDS011;26917;52.328;20.878;2023-01-15T13:42:20;13.70;;;6.53;;
18251;SDS011;26917;52.328;20.878;2023-01-15T13:45:02;11.65;;;6.47;;
18251;SDS011;26917;52.328;20.878;2023-01-15T13:47:54;11.93;;;6.88;;
18251;SDS011;26917;52.328;20.878;2023-01-15T13:50:26;8.95;;;5.68;;
18251;SDS011;26917;52.328;20.878;2023-01-15T13:53:04;11.00;;;6.20;;
18251;SDS011;26917;52.328;20.878;2023-01-15T13:55:35;11.90;;;6.15;;
18251;SDS011;26917;52.328;20.878;2023-01-15T13:58:16;10.07;;;5.85;;
18251;SDS011;26917;52.328;20.878;2023-01-15T14:00:58;22.45;;;7.15;;
18251;SDS011;26917;52.328;20.878;2023-01-15T14:03:29;12.45;;;6.57;;
18251;SDS011;26917;52.328;20.878;2023-01-15T14:06:00;11.48;;;6.50;;
18251;SDS011;26917;52.328;20.878;2023-01-15T14:08:37;9.68;;;6.47;;
18251;SDS011;26917;52.328;20.878;2023-01-15T14:14:16;14.77;;;6.80;;
18251;SDS011;26917;52.328;20.878;2023-01-15T14:17:10;12.40;;;6.50;;
18251;SDS011;26917;52.328;20.878;2023-01-15T14:23:07;10.15;;;6.32;;
18251;SDS011;26917;52.328;20.878;2023-01-15T14:25:55;11.13;;;6.55;;
18251;SDS011;26917;52.328;20.878;2023-01-15T14:28:41;9.38;;;6.75;;
18251;SDS011;26917;52.328;20.878;2023-01-15T14:31:36;11.40;;;6.97;;
18251;SDS011;26917;52.328;20.878;2023-01-15T14:34:24;11.57;;;6.80;;
18251;SDS011;26917;52.328;20.878;2023-01-15T14:36:56;10.93;;;6.82;;
18251;SDS011;26917;52.328;20.878;2023-01-15T14:39:31;13.10;;;7.10;;
18251;SDS011;26917;52.328;20.878;2023-01-15T14:42:08;12.88;;;7.25;;
18251;SDS011;26917;52.328;20.878;2023-01-15T14:44:58;16.83;;;7.82;;
18251;SDS011;26917;52.328;20.878;2023-01-15T14:47:31;15.25;;;7.65;;
18251;SDS011;26917;52.328;20.878;2023-01-15T14:50:20;12.25;;;8.07;;
18251;SDS011;26917;52.328;20.878;2023-01-15T14:52:54;15.40;;;7.63;;
18251;SDS011;26917;52.328;20.878;2023-01-15T14:55:31;13.13;;;7.82;;
18251;SDS011;26917;52.328;20.878;2023-01-15T14:58:02;11.60;;;7.63;;
18251;SDS011;26917;52.328;20.878;2023-01-15T15:00:38;12.40;;;7.63;;
18251;SDS011;26917;52.328;20.878;2023-01-15T15:03:11;19.50;;;8.23;;
18251;SDS011;26917;52.328;20.878;2023-01-15T15:05:44;19.73;;;9.05;;
18251;SDS011;26917;52.328;20.878;2023-01-15T15:08:14;17.30;;;8.55;;
18251;SDS011;26917;52.328;20.878;2023-01-15T15:10:45;16.83;;;8.32;;
18251;SDS011;26917;52.328;20.878;2023-01-15T15:13:26;16.38;;;8.32;;
18251;SDS011;26917;52.328;20.878;2023-01-15T15:16:00;12.65;;;7.40;;
18251;SDS011;26917;52.328;20.878;2023-01-15T15:18:35;10.32;;;7.47;;
18251;SDS011;26917;52.328;20.878;2023-01-15T15:21:09;15.18;;;7.78;;
18251;SDS011;26917;52.328;20.878;2023-01-15T15:23:43;12.32;;;7.25;;
18251;SDS011;26917;52.328;20.878;2023-01-15T15:26:21;14.15;;;7.38;;